Time;durP1;ratioP1;P1;durP2;ratioP2;P2;SDS_P1;SDS_P2;PMS_P1;PMS_P2;Temp;Humidity;BMP_temperature;BMP_pressure;BME280_temperature;BME280_humidity;BME280_pressure;Samples;Min_cycle;Max_cycle;Signal;HPM_P1;HPM_P2
2022/02/06 00:00:05;;;;;;;4.38;1.42;;;23.40;58.20;;;;;;4152707;28;20038;-68
2022/02/06 00:02:33;;;;;;;5.05;1.67;;;23.40;58.10;;;;;;4154098;28;20030;-66
2022/02/06 00:04:56;;;;;;;5.38;1.42;;;23.50;58.10;;;;;;4155718;28;20041;-66
2022/02/06 00:07:19;;;;;;;5.25;1.60;;;23.40;58.00;;;;;;4144207;28;20380;-65
2022/02/06 00:09:44;;;;;;;3.30;1.30;;;23.50;58.00;;;;;;4156184;28;20045;-65
2022/02/06 00:12:07;;;;;;;5.22;1.45;;;23.50;58.00;;;;;;4159383;28;20041;-65
2022/02/06 00:14:29;;;;;;;5.15;1.33;;;23.50;57.90;;;;;;4154795;28;20033;-68
2022/02/06 00:16:52;;;;;;;4.30;1.60;;;23.50;57.90;;;;;;4156320;28;20033;-68
2022/02/06 00:19:14;;;;;;;5.03;1.55;;;23.50;58.00;;;;;;4155609;28;20392;-66
2022/02/06 00:21:37;;;;;;;4.05;1.38;;;23.50;57.90;;;;;;4151038;28;20691;-65
2022/02/06 00:24:00;;;;;;;4.10;1.35;;;23.60;57.90;;;;;;4158967;28;20586;-68
2022/02/06 00:26:36;;;;;;;5.38;1.40;;;23.60;58.00;;;;;;4162270;28;20041;-68
2022/02/06 00:39:10;;;;;;;3.78;1.58;;;23.70;58.10;;;;;;4149768;28;20052;-67
2022/02/06 00:41:34;;;;;;;3.42;1.25;;;23.70;58.10;;;;;;4159277;28;20048;-67
2022/02/06 00:44:02;;;;;;;4.53;1.45;;;23.70;58.10;;;;;;4158867;28;20605;-68
2022/02/06 00:46:24;;;;;;;2.83;1.20;;;23.70;58.20;;;;;;4158780;28;20061;-68
2022/02/06 00:48:55;;;;;;;4.88;1.42;;;23.80;58.20;;;;;;4146652;28;20050;-67
2022/02/06 00:51:34;;;;;;;3.95;1.08;;;23.80;58.20;;;;;;4154205;28;20155;-67
2022/02/06 00:53:57;;;;;;;4.97;1.33;;;23.80;58.20;;;;;;4149942;28;20068;-70
2022/02/06 00:56:19;;;;;;;4.82;1.48;;;23.80;58.20;;;;;;4151445;28;20041;-67
2022/02/06 00:58:41;;;;;;;3.85;1.33;;;23.80;58.10;;;;;;4158969;28;20038;-67
2022/02/06 01:01:05;;;;;;;4.45;1.40;;;23.80;58.20;;;;;;4152629;28;20034;-68
2022/02/06 01:03:28;;;;;;;4.68;1.42;;;23.80;58.10;;;;;;4153444;28;20042;-67
2022/02/06 01:05:50;;;;;;;3.95;1.08;;;23.80;58.10;;;;;;4151053;28;20042;-68
2022/02/06 01:08:13;;;;;;;3.67;1.23;;;23.90;58.20;;;;;;4157189;28;20163;-68
2022/02/06 01:10:35;;;;;;;2.33;1.00;;;23.90;58.20;;;;;;4150825;28;20042;-68
2022/02/06 01:13:11;;;;;;;4.45;1.10;;;23.90;58.20;;;;;;4151756;28;20046;-67
2022/02/06 01:15:35;;;;;;;3.97;1.45;;;23.90;58.10;;;;;;4154452;28;20121;-68
2022/02/06 01:18:04;;;;;;;4.93;1.80;;;23.90;58.00;;;;;;4156033;28;20037;-67
2022/02/06 01:20:43;;;;;;;4.22;1.45;;;24.00;58.10;;;;;;4159500;28;20042;-71
2022/02/06 01:25:34;;;;;;;2.88;0.95;;;24.00;58.00;;;;;;4155678;28;20045;-70
2022/02/06 01:28:04;;;;;;;4.43;1.35;;;24.00;58.00;;;;;;4157623;28;20392;-71
2022/02/06 01:33:01;;;;;;;3.92;1.20;;;24.00;58.10;;;;;;4153456;28;20081;-74
2022/02/06 01:35:31;;;;;;;4.43;1.40;;;24.10;58.10;;;;;;4151084;28;20033;-71
2022/02/06 01:38:07;;;;;;;5.90;1.52;;;24.10;58.10;;;;;;4150733;28;20141;-73
2022/02/06 01:42:59;;;;;;;5.25;1.45;;;24.20;58.10;;;;;;4160274;28;20045;-71
2022/02/06 01:45:31;;;;;;;3.65;1.15;;;24.20;58.10;;;;;;4149483;28;20044;-71
2022/02/06 02:11:57;;;;;;;3.80;1.02;;;24.40;57.70;;;;;;4151635;28;20065;-78
2022/02/06 02:26:57;;;;;;;3.25;1.10;;;24.40;57.60;;;;;;4158826;28;20072;-71
2022/02/06 02:30:10;;;;;;;3.25;1.10;;;24.50;57.60;;;;;;4154888;28;20063;-72
2022/02/06 02:48:01;;;;;;;3.17;1.10;;;24.60;58.00;;;;;;4157119;28;20038;-71
2022/02/06 02:50:24;;;;;;;2.17;0.73;;;24.60;57.40;;;;;;4155772;28;20055;-73
2022/02/06 03:03:18;;;;;;;3.22;1.23;;;24.60;57.20;;;;;;4151897;28;20560;-71
2022/02/06 03:05:47;;;;;;;2.95;0.90;;;24.60;56.70;;;;;;4153403;28;20509;-72
2022/02/06 03:08:10;;;;;;;2.85;0.95;;;24.70;57.30;;;;;;4155591;28;20126;-71
2022/02/06 03:10:34;;;;;;;5.13;1.27;;;24.70;57.30;;;;;;4152099;28;20041;-67
2022/02/06 03:12:56;;;;;;;;;;;24.70;57.30;;;;;;4156952;28;20103;-67
2022/02/06 03:15:33;;;;;;;3.17;1.17;;;24.70;57.30;;;;;;4153953;28;19920;-69
2022/02/06 03:18:01;;;;;;;2.55;1.00;;;24.80;57.40;;;;;;4147597;28;20030;-68
2022/02/06 03:20:23;;;;;;;2.42;1.00;;;24.80;57.20;;;;;;4148302;28;20072;-68
2022/02/06 03:22:51;;;;;;;2.80;1.10;;;24.80;57.20;;;;;;4158865;28;20056;-68
2022/02/06 03:25:19;;;;;;;1.58;0.73;;;24.80;57.80;;;;;;4159018;28;20037;-67
2022/02/06 03:27:41;;;;;;;4.38;1.27;;;24.80;57.20;;;;;;4152229;28;20033;-67
2022/02/06 03:30:05;;;;;;;3.75;1.25;;;24.80;57.10;;;;;;4157429;28;20080;-67
2022/02/06 03:32:27;;;;;;;3.53;1.13;;;24.80;57.20;;;;;;4142544;28;20041;-68
2022/02/06 03:34:50;;;;;;;2.45;1.00;;;24.80;57.10;;;;;;4146163;28;20124;-67
2022/02/06 03:37:12;;;;;;;2.20;0.80;;;24.80;57.10;;;;;;4156280;28;20310;-67
2022/02/06 03:39:37;;;;;;;3.80;1.25;;;24.80;57.10;;;;;;4149576;28;20045;-66
2022/02/06 03:42:13;;;;;;;4.28;1.20;;;24.80;57.20;;;;;;4157354;28;20132;-67
2022/02/06 03:47:06;;;;;;;1.90;0.80;;;24.80;57.10;;;;;;4150009;28;20037;-67
2022/02/06 03:49:40;;;;;;;3.47;1.10;;;24.80;57.20;;;;;;4149841;28;20049;-67
2022/02/06 03:52:02;;;;;;;2.67;0.80;;;24.80;57.20;;;;;;4141236;28;20151;-67
2022/02/06 03:54:25;;;;;;;3.72;1.08;;;24.80;57.20;;;;;;4146910;28;20049;-68
2022/02/06 03:56:48;;;;;;;3.33;1.08;;;24.90;57.20;;;;;;4152759;28;20103;-67
2022/02/06 03:59:11;;;;;;;2.80;1.10;;;24.90;57.20;;;;;;4157489;28;20410;-67
2022/02/06 04:01:33;;;;;;;2.20;0.93;;;24.90;57.20;;;;;;4147496;28;20038;-68
2022/02/06 04:03:56;;;;;;;2.80;0.98;;;24.90;57.20;;;;;;4145112;28;20038;-68
2022/02/06 04:06:19;;;;;;;2.97;1.15;;;24.90;57.80;;;;;;4148629;28;20404;-68
2022/02/06 04:08:42;;;;;;;1.75;0.77;;;24.90;57.10;;;;;;4149567;28;20033;-68
2022/02/06 04:11:09;;;;;;;4.85;1.00;;;25.00;57.10;;;;;;4153221;28;20071;-68
2022/02/06 04:13:34;;;;;;;1.98;0.90;;;25.00;57.40;;;;;;4157169;28;20517;-69
2022/02/06 04:16:00;;;;;;;2.40;1.00;;;25.00;57.10;;;;;;4152962;28;20395;-69
2022/02/06 04:18:36;;;;;;;3.45;0.90;;;25.00;57.00;;;;;;4147882;28;20416;-69
2022/02/06 04:20:59;;;;;;;2.15;1.00;;;25.00;56.80;;;;;;4157334;28;20127;-67
2022/02/06 04:23:21;;;;;;;3.85;0.95;;;25.00;56.80;;;;;;4159260;28;20045;-68
2022/02/06 04:25:44;;;;;;;1.95;0.82;;;25.00;56.80;;;;;;4163094;28;20420;-69
2022/02/06 04:28:06;;;;;;;2.08;0.88;;;25.10;56.90;;;;;;4163171;28;20483;-69
2022/02/06 04:30:29;;;;;;;3.20;1.00;;;25.10;57.20;;;;;;4159177;28;20063;-67
2022/02/06 04:32:53;;;;;;;1.88;1.08;;;25.10;56.80;;;;;;4164308;28;20083;-69
2022/02/06 04:35:19;;;;;;;2.53;0.88;;;25.10;56.80;;;;;;4148130;28;20042;-67
2022/02/06 04:38:05;;;;;;;2.47;0.95;;;25.10;56.80;;;;;;4153697;28;20104;-69
2022/02/06 04:40:45;;;;;;;2.72;1.13;;;25.10;56.60;;;;;;4162673;28;20041;-68
2022/02/06 04:51:25;;;;;;;1.38;0.43;;;25.20;56.60;;;;;;4158940;28;20042;-68
2022/02/06 04:54:00;;;;;;;2.83;0.88;;;25.30;56.50;;;;;;4153710;28;20379;-67
2022/02/06 05:15:16;;;;;;;2.08;0.80;;;25.50;56.20;;;;;;4154770;28;20152;-69
2022/02/06 05:23:01;;;;;;;1.35;0.70;;;25.70;56.00;;;;;;4155727;28;20069;-68
2022/02/06 05:25:47;;;;;;;4.20;1.25;;;25.70;56.00;;;;;;4155982;28;20453;-69
2022/02/06 05:31:02;;;;;;;2.63;1.00;;;25.70;55.90;;;;;;4152860;28;20474;-69
2022/02/06 05:33:25;;;;;;;3.70;1.20;;;25.70;55.90;;;;;;4144693;28;20034;-68
2022/02/06 05:35:47;;;;;;;1.88;0.63;;;25.70;55.90;;;;;;4152916;28;20056;-70
2022/02/06 05:38:10;;;;;;;1.55;0.70;;;25.70;55.90;;;;;;4156079;28;20113;-68
2022/02/06 05:40:32;;;;;;;2.88;1.05;;;25.70;55.90;;;;;;4153458;28;20037;-69
2022/02/06 05:42:55;;;;;;;3.38;0.88;;;25.70;55.90;;;;;;4155237;28;20107;-68
2022/02/06 05:45:21;;;;;;;3.25;1.13;;;25.70;55.90;;;;;;4154616;28;20045;-68
2022/02/06 05:47:43;;;;;;;2.33;1.30;;;25.70;56.00;;;;;;4154393;28;20036;-67
2022/02/06 05:50:06;;;;;;;2.72;0.90;;;25.70;56.00;;;;;;4154219;28;20042;-67
2022/02/06 05:52:29;;;;;;;6.43;1.17;;;25.70;55.90;;;;;;4145490;28;20049;-69
2022/02/06 05:54:51;;;;;;;2.97;1.00;;;25.70;55.90;;;;;;4153474;28;20052;-70
2022/02/06 05:57:14;;;;;;;3.33;0.93;;;25.70;55.90;;;;;;4149706;28;20037;-65
2022/02/06 05:59:36;;;;;;;3.25;1.05;;;25.70;55.90;;;;;;4149812;28;20149;-69
2022/02/06 06:01:59;;;;;;;1.75;0.68;;;25.70;55.90;;;;;;4150904;28;20364;-68
2022/02/06 06:04:21;;;;;;;2.83;0.88;;;25.70;55.90;;;;;;4148868;28;20040;-68
2022/02/06 06:06:44;;;;;;;4.65;1.05;;;25.80;56.00;;;;;;4151508;28;20053;-68
2022/02/06 06:09:06;;;;;;;2.85;0.90;;;25.70;55.90;;;;;;4149582;28;20175;-68
2022/02/06 06:11:29;;;;;;;3.20;1.13;;;25.80;56.40;;;;;;4150901;28;20050;-69
2022/02/06 06:13:51;;;;;;;3.08;0.90;;;25.80;55.90;;;;;;4138694;28;20038;-69
2022/02/06 06:16:14;;;;;;;3.03;0.95;;;25.80;55.90;;;;;;4148226;28;20033;-68
2022/02/06 06:18:37;;;;;;;4.75;1.17;;;25.90;55.80;;;;;;4148761;28;20100;-69
2022/02/06 06:21:00;;;;;;;1.55;0.70;;;25.90;55.80;;;;;;4144434;28;20037;-70
2022/02/06 06:23:24;;;;;;;3.13;0.95;;;26.00;55.80;;;;;;4148317;28;20042;-68
2022/02/06 06:25:50;;;;;;;2.88;0.88;;;26.00;55.70;;;;;;4151609;28;20060;-68
2022/02/06 06:28:12;;;;;;;3.45;0.90;;;26.00;55.70;;;;;;4151319;28;20155;-68
2022/02/06 06:30:35;;;;;;;3.45;1.15;;;26.10;55.60;;;;;;4150796;28;20416;-69
2022/02/06 06:32:58;;;;;;;3.65;1.20;;;26.10;55.60;;;;;;4149271;28;20041;-69
2022/02/06 06:35:21;;;;;;;3.85;1.20;;;26.10;55.40;;;;;;4150410;28;20065;-66
2022/02/06 06:37:43;;;;;;;4.32;1.10;;;26.20;55.50;;;;;;4153699;28;20451;-68
2022/02/06 06:40:06;;;;;;;2.92;1.38;;;26.10;55.40;;;;;;4151134;28;20130;-69
2022/02/06 06:42:29;;;;;;;3.03;1.13;;;26.10;55.30;;;;;;4152148;28;20158;-68
2022/02/06 06:44:52;;;;;;;2.92;1.48;;;26.10;55.30;;;;;;4152146;28;20052;-68
2022/02/06 06:47:14;;;;;;;2.53;1.13;;;26.10;55.30;;;;;;4147569;28;20048;-68
2022/02/06 06:49:37;;;;;;;3.30;1.35;;;26.10;55.30;;;;;;4157260;28;20194;-67
2022/02/06 06:52:00;;;;;;;2.90;1.70;;;26.10;55.30;;;;;;4152629;28;20045;-69
2022/02/06 06:54:34;;;;;;;9.18;1.77;;;26.10;55.30;;;;;;4147220;28;20151;-69
2022/02/06 06:57:02;;;;;;;;;;;26.10;55.30;;;;;;4154304;28;20033;-69
2022/02/06 06:59:46;;;;;;;2.40;1.60;;;26.10;55.40;;;;;;4150349;28;19920;-69
2022/02/06 07:02:17;;;;;;;3.53;1.92;;;26.10;55.30;;;;;;4152870;28;20068;-68
2022/02/06 07:04:39;;;;;;;6.20;1.80;;;26.10;55.90;;;;;;4153384;28;20041;-68
2022/02/06 07:07:01;;;;;;;3.17;1.45;;;26.10;55.40;;;;;;4152894;28;20044;-69
2022/02/06 07:09:24;;;;;;;4.00;1.80;;;26.10;55.40;;;;;;4144352;28;20069;-69
2022/02/06 07:11:46;;;;;;;3.67;1.80;;;26.10;55.50;;;;;;4150752;28;20045;-68
2022/02/06 07:14:09;;;;;;;3.30;1.80;;;26.10;55.50;;;;;;4152279;28;20044;-67
2022/02/06 07:16:31;;;;;;;3.90;2.20;;;26.00;55.40;;;;;;4156992;28;20041;-67
2022/02/06 07:18:54;;;;;;;3.75;2.10;;;26.10;55.50;;;;;;4151734;28;20107;-69
2022/02/06 07:21:16;;;;;;;3.53;1.90;;;26.10;55.50;;;;;;4152806;28;20033;-66
2022/02/06 07:23:38;;;;;;;3.83;2.00;;;26.10;55.50;;;;;;4154725;28;20475;-67
2022/02/06 07:26:04;;;;;;;5.03;2.03;;;26.10;55.50;;;;;;4152601;28;20044;-68
2022/02/06 07:28:56;;;;;;;4.07;2.35;;;26.10;55.50;;;;;;4152286;28;20422;-68
2022/02/06 07:31:19;;;;;;;6.28;2.20;;;26.10;55.50;;;;;;4146201;28;20746;-66
2022/02/06 07:33:41;;;;;;;4.40;2.00;;;26.10;55.60;;;;;;4154898;28;20487;-67
2022/02/06 07:36:04;;;;;;;4.20;2.08;;;26.10;55.60;;;;;;4154717;28;20126;-68
2022/02/06 07:38:27;;;;;;;4.38;2.00;;;26.10;55.70;;;;;;4152795;28;20049;-67
2022/02/06 07:40:49;;;;;;;4.03;2.25;;;26.10;55.70;;;;;;4153993;28;20483;-68
2022/02/06 07:43:11;;;;;;;4.25;2.00;;;26.00;55.60;;;;;;4152604;28;20049;-67
2022/02/06 07:45:39;;;;;;;3.40;1.73;;;26.10;55.70;;;;;;4151190;28;20091;-68
2022/02/06 07:48:03;;;;;;;5.38;2.20;;;26.00;56.30;;;;;;4154504;28;20071;-67
2022/02/06 07:50:26;;;;;;;4.22;1.98;;;26.00;55.70;;;;;;4154589;28;20060;-67
2022/02/06 07:52:48;;;;;;;5.25;1.73;;;26.10;55.80;;;;;;4158010;28;20396;-67
2022/02/06 07:55:11;;;;;;;3.53;1.90;;;26.00;55.80;;;;;;4156888;28;20466;-67
2022/02/06 07:57:35;;;;;;;4.50;2.10;;;26.00;55.80;;;;;;4157141;28;20052;-66
2022/02/06 07:59:57;;;;;;;4.43;2.38;;;26.00;56.60;;;;;;4151580;28;20155;-66
2022/02/06 08:02:20;;;;;;;4.57;1.90;;;26.00;55.90;;;;;;4151574;28;20822;-67
2022/02/06 08:04:45;;;;;;;4.00;2.15;;;26.00;56.00;;;;;;4152594;28;20041;-65
2022/02/06 08:07:09;;;;;;;4.03;1.83;;;26.00;56.00;;;;;;4155513;28;20041;-67
2022/02/06 08:12:03;;;;;;;2.80;1.63;;;26.00;56.10;;;;;;4156220;28;20057;-66
2022/02/06 08:17:07;;;;;;;3.70;1.88;;;26.00;56.00;;;;;;4147833;28;20041;-67
2022/02/06 08:19:29;;;;;;;4.80;2.20;;;26.00;56.10;;;;;;4152610;28;20850;-67
2022/02/06 08:21:52;;;;;;;3.63;1.83;;;26.00;56.20;;;;;;4151745;28;20088;-67
2022/02/06 08:24:14;;;;;;;6.60;2.22;;;26.00;56.20;;;;;;4151713;28;20117;-67
2022/02/06 08:26:37;;;;;;;5.28;1.90;;;26.00;56.20;;;;;;4153819;28;20522;-75
2022/02/06 08:29:01;;;;;;;4.63;1.80;;;25.90;56.30;;;;;;4155693;28;20044;-73
2022/02/06 08:31:23;;;;;;;3.80;1.90;;;25.90;56.40;;;;;;4155817;28;20060;-75
2022/02/06 08:33:46;;;;;;;3.17;1.65;;;25.90;56.50;;;;;;4156525;28;20126;-74
2022/02/06 08:36:08;;;;;;;3.85;1.90;;;25.90;56.90;;;;;;4156032;28;20049;-73
2022/02/06 08:38:31;;;;;;;4.78;1.58;;;25.90;56.60;;;;;;4156673;28;20677;-75
2022/02/06 08:40:53;;;;;;;3.70;1.60;;;25.90;56.70;;;;;;4159863;28;20113;-74
2022/02/06 08:43:16;;;;;;;3.97;1.55;;;25.90;56.90;;;;;;4165980;28;20045;-74
2022/02/06 08:45:38;;;;;;;4.82;1.88;;;25.90;56.90;;;;;;4164206;28;20079;-76
2022/02/06 08:48:01;;;;;;;5.35;1.90;;;25.80;57.00;;;;;;4168645;28;20052;-78
2022/02/06 08:50:24;;;;;;;3.92;1.50;;;25.80;57.00;;;;;;4165606;28;20033;-75
2022/02/06 08:52:47;;;;;;;4.55;1.67;;;25.90;57.20;;;;;;4160808;28;20057;-72
2022/02/06 08:55:12;;;;;;;3.75;1.70;;;25.80;57.10;;;;;;4150792;28;20084;-75
2022/02/06 08:57:36;;;;;;;4.82;1.75;;;25.80;57.20;;;;;;4158285;28;20042;-74
2022/02/06 08:59:58;;;;;;;5.10;1.52;;;25.80;57.20;;;;;;4157564;28;20025;-75
2022/02/06 09:02:21;;;;;;;4.55;1.73;;;25.80;57.30;;;;;;4152656;28;20029;-75
2022/02/06 09:04:44;;;;;;;3.88;1.30;;;25.80;57.30;;;;;;4148938;28;20065;-75
2022/02/06 09:07:08;;;;;;;3.70;1.40;;;25.80;57.30;;;;;;4155270;28;20264;-78
2022/02/06 09:09:32;;;;;;;3.60;1.38;;;25.80;57.30;;;;;;4150987;28;20290;-76
2022/02/06 09:11:55;;;;;;;6.40;1.75;;;25.80;57.40;;;;;;4155913;28;20050;-75
2022/02/06 09:14:18;;;;;;;4.10;1.17;;;25.80;57.40;;;;;;4152610;28;20206;-79
2022/02/06 09:16:41;;;;;;;4.90;1.60;;;25.70;57.30;;;;;;4137134;28;20241;-77
2022/02/06 09:19:03;;;;;;;3.63;1.33;;;25.70;57.30;;;;;;4150713;28;20112;-76
2022/02/06 09:21:25;;;;;;;3.85;1.08;;;25.70;57.40;;;;;;4155374;28;20046;-74
2022/02/06 09:23:49;;;;;;;4.03;1.20;;;25.70;57.30;;;;;;4153216;28;20033;-75
2022/02/06 09:26:11;;;;;;;5.72;1.60;;;25.70;57.80;;;;;;4152835;28;20033;-79
2022/02/06 09:28:34;;;;;;;3.88;1.40;;;25.70;57.40;;;;;;4156695;28;20047;-79
2022/02/06 09:30:56;;;;;;;3.35;1.27;;;25.70;57.50;;;;;;4154809;28;20053;-78
2022/02/06 09:35:41;;;;;;;6.47;1.60;;;25.70;57.50;;;;;;4151684;28;20042;-74
2022/02/06 09:38:03;;;;;;;4.10;1.48;;;25.70;57.50;;;;;;4152509;28;20038;-76
2022/02/06 09:40:28;;;;;;;2.78;1.15;;;25.70;57.60;;;;;;4150053;28;20044;-75
2022/02/06 09:42:55;;;;;;;3.53;1.02;;;25.60;57.50;;;;;;4153703;28;20063;-75
2022/02/06 09:45:17;;;;;;;3.30;1.08;;;25.60;57.50;;;;;;4155613;28;20030;-76
2022/02/06 09:47:43;;;;;;;3.10;1.10;;;25.60;57.60;;;;;;4150346;28;20042;-76
2022/02/06 09:50:06;;;;;;;2.40;1.25;;;25.60;57.60;;;;;;4147016;28;20089;-77
2022/02/06 09:52:30;;;;;;;3.33;1.23;;;25.60;57.60;;;;;;4155548;28;20060;-75
2022/02/06 09:55:12;;;;;;;3.00;1.10;;;25.60;57.70;;;;;;4154355;28;20067;-76
2022/02/06 09:57:50;;;;;;;4.00;1.33;;;25.60;57.70;;;;;;4153401;28;20058;-67
2022/02/06 10:00:13;;;;;;;2.78;1.05;;;25.60;57.80;;;;;;4152605;28;20155;-67
2022/02/06 10:02:37;;;;;;;3.20;0.90;;;25.60;57.80;;;;;;4153912;28;20191;-67
2022/02/06 10:05:00;;;;;;;2.72;1.10;;;25.50;57.80;;;;;;4154286;28;20044;-67
2022/02/06 10:07:41;;;;;;;2.35;1.00;;;25.50;57.80;;;;;;4155050;28;20045;-67
2022/02/06 10:10:08;;;;;;;1.77;1.00;;;25.50;57.90;;;;;;4152883;28;20522;-68
2022/02/06 10:12:46;;;;;;;3.42;1.20;;;25.50;57.90;;;;;;4153647;28;20107;-67
2022/02/06 10:15:22;;;;;;;3.22;1.08;;;25.50;57.90;;;;;;4151087;28;20068;-68
2022/02/06 10:17:45;;;;;;;2.10;1.02;;;25.50;57.90;;;;;;4149430;28;20451;-67
2022/02/06 10:20:31;;;;;;;2.53;1.02;;;25.50;58.00;;;;;;4153179;28;20037;-67
2022/02/06 10:23:00;;;;;;;2.97;0.80;;;25.50;58.00;;;;;;4152553;28;20297;-65
2022/02/06 10:25:23;;;;;;;3.17;1.17;;;25.40;58.00;;;;;;4148108;28;20061;-67
2022/02/06 10:28:33;;;;;;;3.05;1.38;;;25.40;58.00;;;;;;4152509;28;20121;-67
2022/02/06 10:30:54;;;;;;;3.08;1.00;;;25.40;58.00;;;;;;4152661;28;20080;-68
2022/02/06 10:33:20;;;;;;;3.20;1.00;;;25.40;58.00;;;;;;4147870;28;20128;-67
2022/02/06 10:35:45;;;;;;;2.55;0.93;;;25.40;58.00;;;;;;4149882;28;20051;-67
2022/02/06 10:38:21;;;;;;;1.95;0.85;;;25.40;58.10;;;;;;4153269;28;20049;-67
2022/02/06 10:40:46;;;;;;;7.72;1.45;;;25.40;58.20;;;;;;4146905;28;20033;-67
2022/02/06 10:43:12;;;;;;;1.42;0.80;;;25.40;58.20;;;;;;4151225;28;20136;-67
2022/02/06 10:45:37;;;;;;;3.17;1.10;;;25.40;57.80;;;;;;4151749;28;20041;-67
2022/02/06 10:48:00;;;;;;;2.88;1.10;;;25.40;58.30;;;;;;4150140;28;20126;-67
2022/02/06 10:50:29;;;;;;;3.38;1.00;;;25.40;58.40;;;;;;4153564;28;20037;-67
2022/02/06 10:52:52;;;;;;;1.63;0.90;;;25.30;58.30;;;;;;4150248;28;20518;-67
2022/02/06 10:55:21;;;;;;;3.35;1.02;;;25.30;58.40;;;;;;4150466;28;20463;-67
2022/02/06 10:57:58;;;;;;;3.10;0.95;;;25.30;58.50;;;;;;4149635;28;20501;-68
2022/02/06 11:00:30;;;;;;;2.53;0.90;;;25.30;58.50;;;;;;4152402;28;20137;-67
2022/02/06 11:03:09;;;;;;;5.03;1.58;;;25.30;58.50;;;;;;4153803;28;20087;-67
2022/02/06 11:05:53;;;;;;;2.78;0.88;;;25.30;58.60;;;;;;4153995;28;20048;-68
2022/02/06 11:08:25;;;;;;;2.58;0.80;;;25.30;58.60;;;;;;4154169;28;20037;-67
2022/02/06 11:11:00;;;;;;;2.90;1.08;;;25.30;58.70;;;;;;4157499;28;20041;-68
2022/02/06 11:13:24;;;;;;;3.30;0.82;;;25.30;58.70;;;;;;4154867;28;20037;-72
2022/02/06 11:15:47;;;;;;;2.13;1.00;;;25.30;58.80;;;;;;4142278;28;20065;-72
2022/02/06 11:18:22;;;;;;;2.47;0.85;;;25.30;58.80;;;;;;4152969;28;20045;-72
2022/02/06 11:21:16;;;;;;;2.53;1.20;;;25.20;58.70;;;;;;4146276;28;20111;-74
2022/02/06 11:23:38;;;;;;;2.17;0.93;;;25.30;58.90;;;;;;4154695;28;20038;-74
2022/02/06 11:26:01;;;;;;;3.83;1.17;;;25.20;58.90;;;;;;4157658;28;20051;-72
2022/02/06 11:28:23;;;;;;;3.67;1.02;;;25.20;58.90;;;;;;4154653;28;20056;-74
2022/02/06 11:30:46;;;;;;;7.18;1.25;;;25.20;59.40;;;;;;4151224;28;20033;-74
2022/02/06 11:33:08;;;;;;;5.45;1.02;;;25.20;60.00;;;;;;4153904;28;20166;-74
2022/02/06 11:35:31;;;;;;;11.73;1.40;;;25.20;59.70;;;;;;4152001;28;20042;-76
2022/02/06 11:44:07;;;;;;;4.30;1.00;;;25.20;61.50;;;;;;4142360;28;20041;-73
2022/02/06 11:46:49;;;;;;;5.13;0.90;;;25.30;61.70;;;;;;4156739;28;20142;-73
2022/02/06 11:49:14;;;;;;;6.78;1.20;;;25.30;61.40;;;;;;4153622;28;20083;-72
2022/02/06 11:51:37;;;;;;;6.35;1.17;;;25.30;62.00;;;;;;4155302;28;20143;-72
2022/02/06 11:54:19;;;;;;;3.03;0.80;;;25.30;62.10;;;;;;4154281;28;20113;-72
2022/02/06 11:56:42;;;;;;;4.88;1.38;;;25.40;62.50;;;;;;4155818;28;20037;-76
2022/02/06 11:59:11;;;;;;;3.33;0.93;;;25.30;62.50;;;;;;4155479;28;20045;-74
2022/02/06 12:01:34;;;;;;;2.83;0.65;;;25.40;62.60;;;;;;4153612;28;20403;-73
2022/02/06 12:03:59;;;;;;;8.98;1.35;;;25.30;62.50;;;;;;4154219;28;20041;-74
2022/02/06 12:06:27;;;;;;;5.45;0.63;;;25.30;62.40;;;;;;4155936;28;20052;-72
2022/02/06 12:09:01;;;;;;;5.78;0.75;;;25.30;62.50;;;;;;4155661;28;20473;-74
2022/02/06 12:11:24;;;;;;;5.15;1.05;;;25.30;62.40;;;;;;4153628;28;20628;-72
2022/02/06 12:14:03;;;;;;;3.83;0.75;;;25.30;62.50;;;;;;4145059;28;20444;-73
2022/02/06 12:16:26;;;;;;;8.93;0.90;;;25.40;62.50;;;;;;4153006;28;20046;-73
2022/02/06 12:18:48;;;;;;;1.38;0.43;;;25.40;62.50;;;;;;4146419;28;20072;-74
2022/02/06 12:21:12;;;;;;;5.07;0.77;;;25.40;63.00;;;;;;4156730;28;20419;-72
2022/02/06 12:23:50;;;;;;;2.90;0.70;;;25.40;62.40;;;;;;4151375;28;20461;-76
2022/02/06 12:26:38;;;;;;;3.10;0.50;;;25.40;62.30;;;;;;4155772;28;20487;-73
2022/02/06 12:29:11;;;;;;;5.25;1.20;;;25.40;62.30;;;;;;4142287;28;20042;-73
2022/02/06 12:31:47;;;;;;;3.65;0.82;;;25.40;62.20;;;;;;4155383;28;20518;-75
2022/02/06 12:34:10;;;;;;;2.97;0.70;;;25.40;62.20;;;;;;4157063;28;20095;-77
2022/02/06 12:39:25;;;;;;;4.00;0.60;;;25.30;62.00;;;;;;4155325;28;20407;-73
2022/02/06 12:41:48;;;;;;;4.10;0.50;;;25.30;62.10;;;;;;4154111;28;20053;-73
2022/02/06 12:44:15;;;;;;;1.35;0.40;;;25.30;62.10;;;;;;4156925;28;20506;-75
2022/02/06 12:46:38;;;;;;;3.70;0.95;;;25.30;62.10;;;;;;4159956;28;20144;-74
2022/02/06 12:49:03;;;;;;;3.22;0.90;;;25.30;62.10;;;;;;4159846;28;20042;-74
2022/02/06 12:51:30;;;;;;;2.10;0.50;;;25.30;62.80;;;;;;4159562;28;20171;-74
2022/02/06 12:54:12;;;;;;;1.15;0.60;;;25.30;62.10;;;;;;4153387;28;20042;-74
2022/02/06 12:56:36;;;;;;;2.85;0.30;;;25.30;62.10;;;;;;4161038;28;20048;-77
2022/02/06 12:58:59;;;;;;;5.45;0.88;;;25.30;62.20;;;;;;4150919;28;20037;-76
2022/02/06 13:01:42;;;;;;;1.63;0.50;;;25.30;62.10;;;;;;4157925;28;20118;-75
2022/02/06 13:04:05;;;;;;;0.55;0.35;;;25.30;62.10;;;;;;4151767;28;20136;-75
2022/02/06 13:06:35;;;;;;;0.75;0.50;;;25.30;62.00;;;;;;4147175;28;20632;-74
2022/02/06 13:08:59;;;;;;;1.13;0.40;;;25.30;62.00;;;;;;4153430;28;20049;-75
2022/02/06 13:11:30;;;;;;;;;;;25.30;61.90;;;;;;4153397;28;20050;-75
2022/02/06 13:14:23;;;;;;;1.20;0.40;;;25.20;61.80;;;;;;4154417;28;20273;-78
2022/02/06 13:16:54;;;;;;;1.33;0.60;;;25.20;61.90;;;;;;4151427;28;20129;-72
2022/02/06 13:19:40;;;;;;;4.60;0.63;;;25.20;61.90;;;;;;4155181;28;20033;-73
2022/02/06 13:22:27;;;;;;;0.40;0.30;;;25.20;61.90;;;;;;4157476;28;20037;-75
2022/02/06 13:27:35;;;;;;;2.13;0.50;;;25.30;61.90;;;;;;4161198;28;20042;-72
2022/02/06 13:38:00;;;;;;;0.63;0.47;;;25.20;61.70;;;;;;4149279;28;20084;-71
2022/02/06 13:40:28;;;;;;;0.85;0.55;;;25.20;62.50;;;;;;4150825;28;20120;-73
2022/02/06 13:43:06;;;;;;;0.93;0.40;;;25.20;61.90;;;;;;4155442;28;20095;-74
2022/02/06 13:45:29;;;;;;;7.20;0.55;;;25.20;61.90;;;;;;4158106;28;20045;-72
2022/02/06 13:47:54;;;;;;;;;;;25.20;61.90;;;;;;4157380;28;20049;-73
2022/02/06 13:50:16;;;;;;;4.35;0.68;;;25.20;61.80;;;;;;4146600;28;20006;-74
2022/02/06 13:52:43;;;;;;;2.72;0.70;;;25.20;61.80;;;;;;4154967;28;20103;-74
2022/02/06 13:55:06;;;;;;;1.75;0.60;;;25.20;61.80;;;;;;4155849;28;20063;-74
2022/02/06 13:57:37;;;;;;;4.38;0.68;;;25.20;61.80;;;;;;4154655;28;20041;-73
2022/02/06 14:00:09;;;;;;;1.27;0.60;;;25.10;61.70;;;;;;4154436;28;20046;-73
2022/02/06 14:02:32;;;;;;;1.45;0.52;;;25.20;61.90;;;;;;4151125;28;20495;-73
2022/02/06 14:05:06;;;;;;;0.65;0.30;;;25.10;61.80;;;;;;4155132;28;20154;-71
2022/02/06 14:07:30;;;;;;;1.73;0.85;;;25.10;61.80;;;;;;4160368;28;20608;-68
2022/02/06 14:10:12;;;;;;;0.80;0.43;;;25.10;61.80;;;;;;4151968;28;20038;-68
2022/02/06 14:12:54;;;;;;;3.58;0.80;;;25.10;61.80;;;;;;4151139;28;20136;-67
2022/02/06 14:15:28;;;;;;;1.30;0.45;;;25.10;61.80;;;;;;4151742;28;20045;-68
2022/02/06 14:17:54;;;;;;;1.80;0.50;;;25.10;61.80;;;;;;4150133;28;20045;-71
2022/02/06 14:20:23;;;;;;;1.48;0.63;;;25.10;61.80;;;;;;4155072;28;20100;-67
2022/02/06 14:22:48;;;;;;;5.43;0.60;;;25.10;61.80;;;;;;4153635;28;20040;-68
2022/02/06 14:25:12;;;;;;;3.92;0.50;;;25.10;61.90;;;;;;4146501;28;20385;-67
2022/02/06 14:27:42;;;;;;;0.60;0.40;;;25.10;62.00;;;;;;4151284;28;20064;-70
2022/02/06 14:30:16;;;;;;;0.98;0.25;;;25.10;61.80;;;;;;4145733;28;20050;-70
2022/02/06 14:33:02;;;;;;;1.23;0.60;;;25.10;61.80;;;;;;4158279;28;20518;-71
2022/02/06 14:35:36;;;;;;;0.82;0.32;;;25.10;61.70;;;;;;4153029;28;20034;-69
2022/02/06 14:38:00;;;;;;;;;;;25.10;61.70;;;;;;4159348;28;20206;-72
2022/02/06 14:40:52;;;;;;;2.88;0.68;;;25.10;61.70;;;;;;4143314;28;20024;-70
2022/02/06 14:43:14;;;;;;;1.23;0.57;;;25.10;62.40;;;;;;4158648;28;20048;-71
2022/02/06 14:45:38;;;;;;;2.97;0.45;;;25.10;62.60;;;;;;4158641;28;20052;-73
2022/02/06 14:48:00;;;;;;;3.08;0.60;;;25.10;61.90;;;;;;4153419;28;20725;-72
2022/02/06 14:50:23;;;;;;;1.25;0.30;;;25.10;61.90;;;;;;4155752;28;20045;-73
2022/02/06 14:52:47;;;;;;;1.77;0.80;;;25.10;62.00;;;;;;4148284;28;20144;-72
2022/02/06 14:55:11;;;;;;;2.05;0.63;;;25.10;62.00;;;;;;4155970;28;20092;-75
2022/02/06 14:57:33;;;;;;;;;;;25.10;61.90;;;;;;4151204;28;20052;-74
2022/02/06 14:59:56;;;;;;;2.63;0.47;;;25.00;61.80;;;;;;4145696;28;19917;-73
2022/02/06 15:02:18;;;;;;;1.17;0.45;;;25.00;61.80;;;;;;4148875;28;20096;-75
2022/02/06 15:04:41;;;;;;;1.73;0.50;;;25.00;61.90;;;;;;4155059;28;20508;-72
2022/02/06 15:07:04;;;;;;;2.10;0.40;;;25.00;61.90;;;;;;4152292;28;20038;-73
2022/02/06 15:09:26;;;;;;;2.90;0.73;;;24.90;61.90;;;;;;4151443;28;20042;-71